Time;durP1;ratioP1;P1;durP2;ratioP2;P2;SDS_P1;SDS_P2;PMS_P1;PMS_P2;Temp;Humidity;BMP_temperature;BMP_pressure;BME280_temperature;BME280_humidity;BME280_pressure;Samples;Min_cycle;Max_cycle;Signal;HPM_P1;HPM_P2
2022/02/16 00:00:08;;;;;;;13.57;8.43;;;;;;;3.80;100.00;93356.31;5051236;28;20071;-83
2022/02/16 00:02:34;;;;;;;16.02;9.75;;;;;;;3.62;100.00;93333.69;5050954;28;20080;-84
2022/02/16 00:05:04;;;;;;;18.70;9.82;;;;;;;4.12;100.00;93413.06;5051118;28;20048;-83
2022/02/16 00:07:31;;;;;;;14.35;8.65;;;;;;;4.32;100.00;93434.78;5051047;28;20048;-84
2022/02/16 00:09:58;;;;;;;14.30;9.00;;;;;;;4.07;100.00;93396.75;5051215;28;20049;-84
2022/02/16 00:12:25;;;;;;;13.90;9.20;;;;;;;4.22;100.00;93407.78;5070196;28;20047;-84
2022/02/16 00:14:51;;;;;;;12.30;9.05;;;;;;;3.79;100.00;93357.28;5071021;28;20048;-84
2022/02/16 00:17:18;;;;;;;15.52;9.93;;;;;;;4.41;100.00;93436.34;5070620;28;20045;-84
2022/02/16 00:19:45;;;;;;;16.25;10.38;;;;;;;4.38;100.00;93429.03;5070712;28;20109;-83
2022/02/16 00:22:13;;;;;;;15.88;9.80;;;;;;;4.40;100.00;93429.66;5070350;28;20043;-84
2022/02/16 00:24:40;;;;;;;15.25;10.02;;;;;;;4.25;100.00;93402.38;5070544;28;20045;-83
2022/02/16 00:27:07;;;;;;;12.57;9.00;;;;;;;4.14;100.00;93375.59;5070471;28;20051;-83
2022/02/16 00:29:34;;;;;;;13.68;8.88;;;;;;;4.53;100.00;93421.47;5070729;28;20051;-83
2022/02/16 00:32:01;;;;;;;16.00;9.85;;;;;;;4.47;100.00;93407.69;5070545;28;20157;-84
2022/02/16 00:34:28;;;;;;;14.68;9.10;;;;;;;4.36;100.00;93380.09;5070333;28;20049;-83
2022/02/16 00:36:56;;;;;;;13.30;10.07;;;;;;;4.58;100.00;93405.72;5070413;28;20391;-84
2022/02/16 00:39:24;;;;;;;14.57;8.65;;;;;;;4.51;100.00;93387.78;5070206;28;20067;-83
2022/02/16 00:41:51;;;;;;;14.85;9.65;;;;;;;4.67;100.00;93414.88;5070408;28;20036;-84
2022/02/16 00:44:18;;;;;;;14.77;9.40;;;;;;;4.51;100.00;93382.69;5070530;28;20053;-84
2022/02/16 00:46:45;;;;;;;19.05;10.82;;;;;;;4.44;100.00;93371.63;5069968;28;20090;-83
2022/02/16 00:49:11;;;;;;;18.63;11.73;;;;;;;4.70;100.00;93417.09;5070302;28;20049;-83
2022/02/16 00:51:38;;;;;;;14.10;9.82;;;;;;;4.49;100.00;93377.00;5070064;28;20045;-84
2022/02/16 00:54:05;;;;;;;16.25;10.13;;;;;;;4.58;100.00;93385.38;5070208;28;20063;-84
2022/02/16 00:56:34;;;;;;;14.85;9.73;;;;;;;4.71;100.00;93397.56;5070052;28;20044;-84
2022/02/16 00:59:00;;;;;;;15.55;9.70;;;;;;;4.35;100.00;93341.13;5069797;28;20395;-83
2022/02/16 01:01:29;;;;;;;14.25;8.95;;;;;;;4.54;100.00;93372.97;5069794;28;20041;-84
2022/02/16 01:03:56;;;;;;;13.25;9.18;;;;;;;4.72;100.00;93378.78;5069617;28;20040;-84
2022/02/16 01:06:22;;;;;;;13.10;9.48;;;;;;;4.15;100.00;93292.47;5070233;28;20060;-85
2022/02/16 01:08:49;;;;;;;15.68;8.52;;;;;;;4.62;100.00;93356.88;5069594;28;20056;-84
2022/02/16 01:11:17;;;;;;;14.95;8.63;;;;;;;4.89;100.00;93381.97;5069767;28;20040;-84
2022/02/16 01:13:45;;;;;;;12.93;9.38;;;;;;;4.91;100.00;93391.03;5069786;28;20094;-84
2022/02/16 01:16:12;;;;;;;14.52;9.02;;;;;;;4.81;100.00;93365.00;5069166;28;20045;-84
2022/02/16 01:18:39;;;;;;;12.30;8.82;;;;;;;4.85;100.00;93357.84;5069488;28;20044;-84
2022/02/16 01:21:06;;;;;;;13.70;8.68;;;;;;;4.67;100.00;93334.25;5069909;28;20395;-84
2022/02/16 01:23:33;;;;;;;17.17;9.82;;;;;;;4.50;100.00;93313.22;5069682;28;20483;-85
2022/02/16 01:25:59;;;;;;;14.85;8.85;;;;;;;4.59;100.00;93323.34;5069809;28;20056;-84
2022/02/16 01:28:26;;;;;;;13.43;9.00;;;;;;;4.67;100.00;93320.72;5069603;28;20052;-84
2022/02/16 01:30:55;;;;;;;14.52;9.00;;;;;;;4.46;100.00;93286.56;5069660;28;20075;-84
2022/02/16 01:33:21;;;;;;;15.85;9.10;;;;;;;4.65;100.00;93297.22;5069640;28;20089;-85
2022/02/16 01:35:48;;;;;;;14.48;8.93;;;;;;;5.06;100.00;93357.19;5069527;28;20044;-84
2022/02/16 01:38:15;;;;;;;15.23;10.18;;;;;;;5.05;100.00;93351.31;5069306;28;20397;-85
2022/02/16 01:40:42;;;;;;;14.02;8.40;;;;;;;4.80;100.00;93292.16;5069549;28;20056;-84
2022/02/16 01:43:09;;;;;;;14.55;8.90;;;;;;;4.84;100.00;93287.53;5069519;28;20044;-84
2022/02/16 01:45:37;;;;;;;14.70;8.73;;;;;;;5.26;100.00;93341.41;5069552;28;20135;-85
2022/02/16 01:48:06;;;;;;;13.65;8.43;;;;;;;5.11;100.00;93334.56;5069533;28;20049;-84
2022/02/16 01:50:33;;;;;;;15.80;10.43;;;;;;;4.56;100.00;93258.34;5069408;28;20419;-84
2022/02/16 01:53:00;;;;;;;13.70;8.73;;;;;;;4.70;100.00;93268.72;5069324;28;20056;-85
2022/02/16 01:55:27;;;;;;;15.38;9.18;;;;;;;4.75;100.00;93277.44;5068796;28;20052;-84
2022/02/16 01:57:54;;;;;;;17.02;10.10;;;;;;;4.60;100.00;93246.88;5069526;28;20060;-84
2022/02/16 02:00:21;;;;;;;15.68;9.50;;;;;;;4.91;100.00;93296.84;5069430;28;20061;-84
2022/02/16 02:02:48;;;;;;;15.85;9.70;;;;;;;4.86;100.00;93294.03;5069160;28;20048;-84
2022/02/16 02:05:16;;;;;;;14.95;9.82;;;;;;;4.55;100.00;93244.03;5069323;28;20044;-84
2022/02/16 02:07:44;;;;;;;16.50;9.57;;;;;;;4.63;100.00;93271.94;5069402;28;20049;-84
2022/02/16 02:10:11;;;;;;;14.02;9.27;;;;;;;4.62;100.00;93274.66;5068722;28;20484;-85
2022/02/16 02:12:45;;;;;;;16.10;10.00;;;;;;;4.87;100.00;93320.28;5068702;28;20554;-84
2022/02/16 02:15:12;;;;;;;16.58;9.82;;;;;;;4.38;100.00;93258.63;5068963;28;20052;-83
2022/02/16 02:17:40;;;;;;;15.38;9.25;;;;;;;4.77;100.00;93313.66;5068896;28;20048;-84
2022/02/16 02:20:19;;;;;;;18.58;9.52;;;;;;;4.75;100.00;93302.88;5068705;28;20053;-83
2022/02/16 02:22:46;;;;;;;16.85;10.35;;;;;;;4.60;100.00;93279.94;5069050;28;20103;-84
2022/02/16 02:25:12;;;;;;;18.48;10.63;;;;;;;4.70;100.00;93294.16;5069051;28;20049;-84
2022/02/16 02:27:39;;;;;;;17.42;10.40;;;;;;;4.82;100.00;93303.00;5068766;28;20052;-85
2022/02/16 02:30:07;;;;;;;17.77;10.32;;;;;;;4.84;100.00;93302.78;5068964;28;20933;-85
2022/02/16 02:32:34;;;;;;;18.70;11.10;;;;;;;4.79;100.00;93291.41;5068963;28;20099;-85
2022/02/16 02:35:01;;;;;;;18.35;10.65;;;;;;;4.43;100.00;93230.16;5069034;28;20040;-84
2022/02/16 02:37:29;;;;;;;16.60;10.85;;;;;;;4.43;100.00;93222.53;5071822;28;20493;-85
2022/02/16 02:39:56;;;;;;;16.90;10.32;;;;;;;4.81;100.00;93284.38;5072830;28;20054;-85
2022/02/16 02:42:23;;;;;;;16.63;9.60;;;;;;;4.77;100.00;93272.19;5072807;28;20040;-84
2022/02/16 02:44:50;;;;;;;18.02;10.95;;;;;;;4.77;100.00;93272.19;5072354;28;20484;-84
2022/02/16 02:47:17;;;;;;;17.08;10.43;;;;;;;4.68;100.00;93256.19;5072633;28;20040;-85
2022/02/16 02:49:45;;;;;;;17.63;10.88;;;;;;;4.50;100.00;93224.19;5072582;28;20052;-84
2022/02/16 02:52:12;;;;;;;18.50;10.52;;;;;;;4.56;100.00;93230.34;5072478;28;20055;-85
2022/02/16 02:54:40;;;;;;;19.58;11.50;;;;;;;4.96;100.00;93286.16;5072096;28;20049;-84
2022/02/16 02:57:07;;;;;;;20.25;11.10;;;;;;;4.98;100.00;93281.69;5071954;28;20055;-84
2022/02/16 02:59:34;;;;;;;15.48;10.27;;;;;;;4.55;100.00;93224.47;5072295;28;20040;-85
2022/02/16 03:02:01;;;;;;;16.00;10.13;;;;;;;4.82;100.00;93280.09;5072327;28;20040;-84
2022/02/16 03:04:27;;;;;;;18.95;11.85;;;;;;;4.50;100.00;93229.28;5072096;28;20480;-84
2022/02/16 03:06:54;;;;;;;16.50;11.65;;;;;;;4.43;100.00;93218.22;5072605;28;20044;-84
2022/02/16 03:09:21;;;;;;;19.85;12.02;;;;;;;4.89;100.00;93291.16;5072247;28;20543;-84
2022/02/16 03:11:49;;;;;;;20.50;10.88;;;;;;;4.68;100.00;93251.09;5071978;28;20050;-84
2022/02/16 03:14:16;;;;;;;20.27;11.07;;;;;;;4.71;100.00;93245.66;5071672;28;20040;-84
2022/02/16 03:16:43;;;;;;;21.02;11.15;;;;;;;4.73;100.00;93258.19;5071585;28;20045;-85
2022/02/16 03:19:10;;;;;;;19.42;11.70;;;;;;;4.61;100.00;93228.09;5071700;28;20050;-85
2022/02/16 03:21:37;;;;;;;17.10;11.00;;;;;;;4.71;100.00;93249.97;5071985;28;20056;-85
2022/02/16 03:24:06;;;;;;;17.10;10.13;;;;;;;4.97;100.00;93297.94;5071663;28;20048;-85
2022/02/16 03:26:33;;;;;;;16.20;9.50;;;;;;;4.24;100.00;93199.13;5071449;28;20135;-84
2022/02/16 03:29:01;;;;;;;14.43;10.05;;;;;;;4.79;100.00;93280.41;5071869;28;20052;-84
2022/02/16 03:31:28;;;;;;;21.90;12.73;;;;;;;4.81;100.00;93283.56;5071557;28;20050;-85
2022/02/16 03:33:55;;;;;;;14.85;9.80;;;;;;;4.71;100.00;93267.78;5071452;28;20173;-85
2022/02/16 03:36:25;;;;;;;13.45;8.52;;;;;;;4.73;100.00;93278.56;5071715;28;20053;-85
2022/02/16 03:38:52;;;;;;;18.95;10.27;;;;;;;4.82;100.00;93293.59;5071573;28;20139;-84
2022/02/16 03:41:19;;;;;;;15.50;9.18;;;;;;;4.62;100.00;93251.75;5071573;28;20048;-84
2022/02/16 03:43:45;;;;;;;16.52;9.30;;;;;;;4.36;100.00;93213.00;5071519;28;20059;-84
2022/02/16 03:46:14;;;;;;;16.35;10.60;;;;;;;4.82;100.00;93288.50;5071849;28;20044;-84
2022/02/16 03:48:41;;;;;;;15.00;10.13;;;;;;;4.48;100.00;93231.22;5070271;28;20055;-84
2022/02/16 03:51:08;;;;;;;16.77;10.73;;;;;;;4.77;100.00;93272.94;5071285;28;20044;-84
2022/02/16 03:53:35;;;;;;;18.58;10.90;;;;;;;4.86;100.00;93281.31;5071246;28;20484;-84
2022/02/16 03:56:02;;;;;;;23.95;12.27;;;;;;;4.73;100.00;93260.75;5070630;28;20543;-84
2022/02/16 03:58:29;;;;;;;16.48;11.07;;;;;;;4.96;100.00;93291.25;5071053;28;20040;-84
2022/02/16 04:00:55;;;;;;;18.60;11.13;;;;;;;4.86;100.00;93272.88;5071133;28;20060;-85
2022/02/16 04:03:24;;;;;;;19.33;12.38;;;;;;;4.95;100.00;93276.94;5071192;28;20127;-85
2022/02/16 04:05:51;;;;;;;18.50;11.65;;;;;;;4.59;100.00;93234.31;5071024;28;20473;-84
2022/02/16 04:08:17;;;;;;;18.65;11.70;;;;;;;4.96;100.00;93276.00;5071160;28;20392;-83
2022/02/16 04:10:44;;;;;;;19.42;10.80;;;;;;;4.90;100.00;93258.84;5070729;28;20041;-83
2022/02/16 04:13:12;;;;;;;21.55;12.70;;;;;;;4.99;100.00;93275.63;5070862;28;20048;-82
2022/02/16 04:15:38;;;;;;;20.40;11.85;;;;;;;4.68;100.00;93228.97;5070884;28;20045;-82
2022/02/16 04:18:05;;;;;;;14.95;10.25;;;;;;;4.77;100.00;93242.41;5067518;28;20040;-82
2022/02/16 04:20:34;;;;;;;19.60;10.15;;;;;;;4.96;100.00;93273.44;5068621;28;20098;-81
2022/02/16 04:23:00;;;;;;;18.85;11.70;;;;;;;4.90;100.00;93274.91;5070373;28;20051;-83
2022/02/16 04:25:27;;;;;;;20.40;11.07;;;;;;;4.85;100.00;93267.00;5070062;28;20044;-82
2022/02/16 04:27:54;;;;;;;18.65;11.40;;;;;;;4.74;100.00;93254.69;5070599;28;20044;-82
2022/02/16 04:30:21;;;;;;;18.30;11.82;;;;;;;4.75;100.00;93243.53;5070223;28;20036;-84
2022/02/16 04:32:48;;;;;;;21.08;11.90;;;;;;;4.92;100.00;93265.34;5069983;28;20506;-83
2022/02/16 04:35:15;;;;;;;25.50;12.93;;;;;;;4.84;100.00;93262.88;5070599;28;20045;-85
2022/02/16 04:37:43;;;;;;;23.48;12.68;;;;;;;4.92;100.00;93262.78;5070391;28;20063;-83
2022/02/16 04:40:11;;;;;;;22.10;12.90;;;;;;;4.90;100.00;93267.28;5069756;28;20040;-85
2022/02/16 04:42:38;;;;;;;19.60;12.35;;;;;;;4.80;100.00;93261.63;5070142;28;20506;-84
2022/02/16 04:45:06;;;;;;;20.90;11.98;;;;;;;4.60;100.00;93226.50;5070293;28;20044;-84
2022/02/16 04:47:33;;;;;;;18.73;11.27;;;;;;;4.41;100.00;93210.75;5069924;28;20476;-85
2022/02/16 04:50:01;;;;;;;19.67;12.18;;;;;;;4.44;100.00;93207.06;5070555;28;20048;-84
2022/02/16 04:52:34;;;;;;;24.13;12.70;;;;;;;4.28;100.00;93203.72;5070072;28;20052;-85
2022/02/16 04:55:03;;;;;;;20.77;12.10;;;;;;;4.51;100.00;93228.34;5070248;28;20049;-83
2022/02/16 04:57:30;;;;;;;26.98;14.75;;;;;;;4.72;100.00;93257.41;5070500;28;20044;-83
2022/02/16 04:59:58;;;;;;;32.78;19.08;;;;;;;4.66;100.00;93253.81;5070199;28;20048;-84
2022/02/16 05:02:26;;;;;;;37.22;23.42;;;;;;;4.63;100.00;93248.28;5069987;28;20056;-84
2022/02/16 05:04:53;;;;;;;36.55;22.15;;;;;;;4.15;100.00;93178.06;5070083;28;20076;-84
2022/02/16 05:07:19;;;;;;;34.60;20.67;;;;;;;4.64;100.00;93247.31;5070077;28;20048;-84
2022/02/16 05:09:46;;;;;;;28.88;18.08;;;;;;;4.60;100.00;93243.50;5070270;28;20103;-84
2022/02/16 05:12:15;;;;;;;24.20;15.82;;;;;;;4.53;100.00;93254.38;5070407;28;20044;-84
2022/02/16 05:14:42;;;;;;;23.13;15.15;;;;;;;4.18;100.00;93198.06;5070200;28;20051;-84
2022/02/16 05:17:10;;;;;;;27.17;15.77;;;;;;;4.44;100.00;93245.22;5070238;28;20054;-85
2022/02/16 05:19:37;;;;;;;27.20;14.90;;;;;;;4.37;100.00;93232.41;5070432;28;20079;-84
2022/02/16 05:22:04;;;;;;;29.58;17.23;;;;;;;4.24;100.00;93222.81;5070414;28;20082;-84
2022/02/16 05:24:31;;;;;;;25.83;14.93;;;;;;;3.93;100.00;93174.56;5069879;28;20054;-84
2022/02/16 05:26:58;;;;;;;25.52;14.45;;;;;;;3.86;100.00;93175.25;5070492;28;20040;-84
2022/02/16 05:29:26;;;;;;;27.67;15.45;;;;;;;3.93;100.00;93187.28;5070036;28;20127;-85
2022/02/16 05:31:53;;;;;;;30.77;16.55;;;;;;;4.26;100.00;93256.47;5070151;28;20415;-84
2022/02/16 05:34:20;;;;;;;27.08;16.83;;;;;;;4.16;100.00;93230.47;5070134;28;20056;-84
2022/02/16 05:36:47;;;;;;;29.35;17.23;;;;;;;4.11;100.00;93232.72;5069865;28;20049;-84
2022/02/16 05:39:14;;;;;;;24.92;15.10;;;;;;;3.91;100.00;93200.16;5069894;28;20476;-84
2022/02/16 05:41:41;;;;;;;21.05;13.73;;;;;;;3.87;100.00;93193.81;5069796;28;20050;-84
2022/02/16 05:44:08;;;;;;;23.33;14.10;;;;;;;4.37;100.00;93250.22;5069875;28;20053;-84
2022/02/16 05:46:36;;;;;;;28.48;17.23;;;;;;;4.24;100.00;93222.00;5069889;28;20052;-84
2022/02/16 05:49:03;;;;;;;31.02;18.27;;;;;;;4.28;100.00;93249.50;5070035;28;20070;-84
2022/02/16 05:51:30;;;;;;;29.95;16.83;;;;;;;3.67;100.00;93163.78;5069443;28;20131;-84
2022/02/16 05:53:57;;;;;;;30.08;17.83;;;;;;;3.91;100.00;93205.22;5069437;28;20048;-84
2022/02/16 05:56:24;;;;;;;33.42;18.08;;;;;;;4.32;100.00;93244.84;5069737;28;20047;-84
2022/02/16 05:58:50;;;;;;;34.45;19.00;;;;;;;4.43;100.00;93255.59;5069839;28;20044;-84
2022/02/16 06:01:17;;;;;;;36.08;20.40;;;;;;;4.44;100.00;93259.72;5069514;28;20055;-84
2022/02/16 06:03:46;;;;;;;38.85;20.98;;;;;;;4.14;100.00;93210.34;5069515;28;20127;-84
2022/02/16 06:06:13;;;;;;;36.58;20.13;;;;;;;4.41;100.00;93255.75;5062794;28;20036;-84
2022/02/16 06:08:40;;;;;;;33.60;18.13;;;;;;;4.42;100.00;93252.25;5067847;28;20049;-84
2022/02/16 06:11:10;;;;;;;29.95;18.42;;;;;;;4.47;100.00;93249.97;5069752;28;20132;-84
2022/02/16 06:13:37;;;;;;;26.80;15.68;;;;;;;4.55;100.00;93261.84;5073184;28;20044;-84
2022/02/16 06:16:04;;;;;;;28.05;15.95;;;;;;;4.65;100.00;93267.50;5073283;28;20040;-84
2022/02/16 06:18:31;;;;;;;22.55;12.68;;;;;;;4.60;100.00;93238.44;5073142;28;20040;-84
2022/02/16 06:20:59;;;;;;;19.83;12.00;;;;;;;4.83;100.00;93281.66;5073743;28;20056;-84
2022/02/16 06:23:26;;;;;;;20.70;11.13;;;;;;;4.77;100.00;93267.84;5073114;28;20048;-84
2022/02/16 06:25:53;;;;;;;20.35;11.50;;;;;;;4.75;100.00;93251.97;5072955;28;20539;-84
2022/02/16 06:28:19;;;;;;;17.75;11.45;;;;;;;5.08;100.00;93287.31;5073329;28;20051;-84
2022/02/16 06:30:48;;;;;;;17.80;10.52;;;;;;;4.70;100.00;93215.28;5073296;28;20044;-84
2022/02/16 06:33:15;;;;;;;17.90;10.43;;;;;;;4.93;100.00;93233.03;5073189;28;20036;-84
2022/02/16 06:35:41;;;;;;;21.80;11.25;;;;;;;5.45;100.00;93289.97;5072972;28;20040;-84
2022/02/16 06:38:11;;;;;;;12.07;8.40;;;;;;;4.85;100.00;93193.19;5072936;28;20131;-84
2022/02/16 06:40:38;;;;;;;13.85;8.60;;;;;;;5.33;100.00;93250.63;5073268;28;20048;-83
2022/02/16 06:43:05;;;;;;;16.52;9.20;;;;;;;5.72;100.00;93279.31;5073236;28;20041;-83
2022/02/16 06:45:32;;;;;;;15.60;8.13;;;;;;;5.79;100.00;93272.53;5072748;28;20510;-83
2022/02/16 06:47:59;;;;;;;16.17;8.80;;;;;;;5.74;100.00;93262.88;5073232;28;20457;-83
2022/02/16 06:50:26;;;;;;;16.83;8.50;;;;;;;5.84;100.00;93260.06;5072950;28;20052;-84
2022/02/16 06:52:53;;;;;;;13.60;8.05;;;;;;;5.93;100.00;93270.94;5073084;28;20041;-83
2022/02/16 06:55:21;;;;;;;19.25;9.32;;;;;;;5.88;100.00;93255.41;5072653;28;20048;-83
2022/02/16 06:57:48;;;;;;;21.90;10.35;;;;;;;6.03;100.00;93270.69;5072725;28;20708;-83
2022/02/16 07:00:15;;;;;;;15.65;8.93;;;;;;;5.99;100.00;93264.34;5072978;28;20392;-83
2022/02/16 07:02:43;;;;;;;12.95;8.55;;;;;;;5.96;100.00;93257.84;5072889;28;20407;-83
2022/02/16 07:05:10;;;;;;;15.07;9.02;;;;;;;6.21;100.00;93277.16;5072462;28;20389;-83
2022/02/16 07:07:37;;;;;;;12.45;8.60;;;;;;;6.18;100.00;93270.66;5072589;28;20044;-83
2022/02/16 07:10:04;;;;;;;13.82;8.20;;;;;;;6.09;100.00;93241.91;5072863;28;20048;-83
2022/02/16 07:12:33;;;;;;;13.75;8.27;;;;;;;6.32;100.00;93274.13;5072464;28;20044;-84
2022/02/16 07:15:00;;;;;;;15.55;8.70;;;;;;;6.26;100.00;93247.56;5072282;28;20048;-84
2022/02/16 07:17:26;;;;;;;13.63;9.15;;;;;;;6.32;100.00;93242.72;5072485;28;20451;-84
2022/02/16 07:19:53;;;;;;;15.88;10.27;;;;;;;6.55;100.00;93275.72;5072373;28;20044;-83
2022/02/16 07:22:20;;;;;;;15.38;9.60;;;;;;;6.61;100.00;93277.53;5071871;28;20050;-83
2022/02/16 07:24:48;;;;;;;13.52;9.57;;;;;;;6.67;100.00;93276.78;5072014;28;20451;-84
2022/02/16 07:27:14;;;;;;;17.92;12.77;;;;;;;6.64;100.00;93261.06;5072557;28;20768;-84
2022/02/16 07:29:43;;;;;;;14.02;9.38;;;;;;;6.14;100.00;93180.97;5072457;28;20051;-84
2022/02/16 07:32:10;;;;;;;15.23;9.15;;;;;;;6.67;100.00;93266.56;5072195;28;20077;-84
2022/02/16 07:34:37;;;;;;;12.07;8.70;;;;;;;6.65;100.00;93265.19;5072418;28;20045;-84
2022/02/16 07:37:04;;;;;;;12.52;7.18;;;;;;;6.72;100.00;93268.59;5072221;28;20071;-83
2022/02/16 07:39:31;;;;;;;15.82;9.40;;;;;;;6.54;100.00;93228.19;5071828;28;20430;-84
2022/02/16 07:42:01;;;;;;;13.27;8.38;;;;;;;6.84;100.00;93256.09;5072244;28;20048;-84
2022/02/16 07:44:28;;;;;;;16.95;8.43;;;;;;;6.97;100.00;93270.75;5071773;28;20821;-84
2022/02/16 07:46:57;;;;;;;11.85;7.70;;;;;;;6.56;100.00;93195.63;5071997;28;20047;-84
2022/02/16 07:49:23;;;;;;;13.10;7.75;;;;;;;6.71;100.00;93233.81;5071734;28;20064;-84
2022/02/16 07:51:50;;;;;;;12.80;8.13;;;;;;;6.95;100.00;93235.16;5071528;28;20045;-84
2022/02/16 07:54:17;;;;;;;11.02;7.65;;;;;;;6.99;99.70;93233.03;5071503;28;20053;-84
2022/02/16 07:56:44;;;;;;;13.23;7.07;;;;;;;7.05;99.16;93236.59;5071681;28;20048;-84
2022/02/16 07:59:11;;;;;;;12.73;7.28;;;;;;;6.84;98.93;93196.59;5071517;28;20044;-83
2022/02/16 08:01:38;;;;;;;11.43;7.45;;;;;;;7.08;98.75;93234.47;5071939;28;20392;-84
2022/02/16 08:04:18;;;;;;;11.75;8.05;;;;;;;6.99;99.31;93202.38;5071815;28;20559;-84
2022/02/16 08:06:47;;;;;;;13.02;7.60;;;;;;;7.01;98.55;93191.97;5071470;28;20558;-84
2022/02/16 08:09:14;;;;;;;16.10;8.27;;;;;;;7.37;99.39;93248.97;5071674;28;20052;-84
2022/02/16 08:11:42;;;;;;;13.70;8.30;;;;;;;7.51;99.13;93242.97;5071666;28;20045;-84
2022/02/16 08:14:09;;;;;;;10.65;7.55;;;;;;;7.55;99.15;93251.81;5071408;28;20472;-83
2022/02/16 08:16:37;;;;;;;13.60;7.55;;;;;;;7.04;99.25;93184.72;5071200;28;20044;-84
2022/02/16 08:19:06;;;;;;;15.88;8.68;;;;;;;7.43;99.05;93243.91;5071028;28;20052;-85
2022/02/16 08:21:34;;;;;;;12.45;8.30;;;;;;;7.14;99.07;93188.72;5071503;28;20387;-84
2022/02/16 08:24:01;;;;;;;13.05;8.55;;;;;;;7.60;99.62;93254.59;5071345;28;20044;-84
2022/02/16 08:26:28;;;;;;;16.63;9.60;;;;;;;6.95;99.06;93150.13;5071159;28;20049;-84
2022/02/16 08:28:55;;;;;;;14.38;9.65;;;;;;;7.47;98.22;93208.53;5071014;28;20060;-84
2022/02/16 08:31:23;;;;;;;12.13;7.25;;;;;;;7.35;97.02;93187.81;5071284;28;20131;-84
2022/02/16 08:33:51;;;;;;;12.40;8.63;;;;;;;7.85;96.44;93243.09;5070347;28;20147;-85
2022/02/16 08:36:19;;;;;;;16.25;8.88;;;;;;;7.87;95.89;93239.34;5070890;28;20055;-84
2022/02/16 08:38:46;;;;;;;14.48;8.60;;;;;;;8.06;95.77;93239.59;5070834;28;20059;-85
2022/02/16 08:41:14;;;;;;;17.48;8.52;;;;;;;7.77;94.85;93176.78;5071144;28;20117;-85
2022/02/16 08:43:42;;;;;;;16.75;10.05;;;;;;;8.32;94.32;93232.97;5070838;28;20049;-84
2022/02/16 08:46:09;;;;;;;17.38;9.52;;;;;;;8.47;93.94;93227.66;5070708;28;20079;-84
2022/02/16 08:48:36;;;;;;;22.33;12.52;;;;;;;8.36;92.80;93192.41;5070782;28;20040;-85
2022/02/16 08:51:04;;;;;;;13.93;7.75;;;;;;;8.59;91.74;93204.06;5070527;28;20051;-84
2022/02/16 08:53:32;;;;;;;30.98;20.25;;;;;;;8.52;91.29;93175.91;5070701;28;20056;-85
2022/02/16 08:56:00;;;;;;;15.63;8.25;;;;;;;8.86;90.55;93217.66;5070248;28;20048;-84
2022/02/16 08:58:27;;;;;;;11.07;7.03;;;;;;;8.86;90.57;93209.97;5070404;28;20118;-84
2022/02/16 09:00:54;;;;;;;13.20;8.77;;;;;;;8.55;89.84;93152.47;5070874;28;20139;-84
2022/02/16 09:03:21;;;;;;;15.38;7.57;;;;;;;8.83;89.63;93187.31;5070502;28;20048;-84
2022/02/16 09:05:48;;;;;;;10.48;5.82;;;;;;;8.80;89.59;93180.81;5070458;28;20052;-84
2022/02/16 09:08:15;;;;;;;12.13;6.00;;;;;;;8.88;89.93;93182.38;5070524;28;20055;-83
2022/02/16 09:10:44;;;;;;;10.27;6.68;;;;;;;9.11;89.80;93217.03;5070113;28;20040;-84
2022/02/16 09:13:11;;;;;;;13.35;8.85;;;;;;;8.85;89.63;93176.88;5069991;28;20496;-84
2022/02/16 09:15:38;;;;;;;15.40;9.65;;;;;;;9.31;89.51;93211.06;5070019;28;20051;-84
2022/02/16 09:18:06;;;;;;;14.30;8.70;;;;;;;9.33;89.29;93201.41;5070387;28;20080;-84
2022/02/16 09:20:33;;;;;;;12.23;6.93;;;;;;;9.42;87.94;93209.66;5070198;28;20054;-84
2022/02/16 09:23:01;;;;;;;19.33;12.40;;;;;;;9.58;88.03;93226.38;5070361;28;20082;-83
2022/02/16 09:25:28;;;;;;;14.85;10.80;;;;;;;9.14;87.80;93150.00;5069972;28;20040;-83
2022/02/16 09:27:57;;;;;;;13.98;8.77;;;;;;;9.69;88.07;93214.69;5069832;28;20396;-84
2022/02/16 09:30:24;;;;;;;16.20;8.23;;;;;;;9.41;87.59;93156.81;5069886;28;20048;-84
2022/02/16 09:32:50;;;;;;;14.40;7.50;;;;;;;9.83;87.68;93200.03;5070144;28;20041;-84
2022/02/16 09:35:17;;;;;;;20.02;9.70;;;;;;;10.10;86.93;93207.59;5069838;28;20044;-83
2022/02/16 09:37:44;;;;;;;10.60;6.55;;;;;;;10.21;86.35;93212.06;5069687;28;20067;-83
2022/02/16 09:40:12;;;;;;;11.38;6.90;;;;;;;9.66;85.30;93126.13;5069719;28;20044;-83
2022/02/16 09:42:40;;;;;;;17.33;8.15;;;;;;;9.80;85.26;93121.69;5069307;28;20044;-83
2022/02/16 09:45:10;;;;;;;12.13;8.00;;;;;;;10.33;85.25;93188.28;5068871;28;20439;-83
2022/02/16 09:47:41;;;;;;;10.45;6.55;;;;;;;10.50;84.12;93197.09;5068991;28;20059;-83
2022/02/16 09:50:09;;;;;;;13.18;7.07;;;;;;;10.54;84.14;93190.53;5069755;28;20052;-83
2022/02/16 09:52:36;;;;;;;10.60;6.72;;;;;;;10.68;84.33;93183.50;5069464;28;20405;-84
2022/02/16 09:55:03;;;;;;;12.05;6.63;;;;;;;10.72;83.97;93183.06;5069186;28;20507;-83
2022/02/16 09:57:30;;;;;;;12.02;7.35;;;;;;;10.57;82.57;93143.09;5069476;28;20053;-84
2022/02/16 09:59:57;;;;;;;9.98;5.90;;;;;;;10.82;81.91;93181.63;5069378;28;20051;-83
2022/02/16 10:02:35;;;;;;;11.98;6.88;;;;;;;10.67;80.88;93169.09;5069237;28;20044;-84
2022/02/16 10:05:02;;;;;;;11.38;5.68;;;;;;;10.95;79.75;93179.91;5069338;28;20064;-83
2022/02/16 10:07:33;;;;;;;12.20;5.70;;;;;;;10.47;80.54;93106.84;5069082;28;20406;-83
2022/02/16 10:10:12;;;;;;;11.55;7.40;;;;;;;10.52;79.73;93097.50;5069419;28;20044;-84
2022/02/16 10:12:39;;;;;;;15.82;8.48;;;;;;;10.75;78.24;93121.00;5069307;28;20387;-85
2022/02/16 10:15:07;;;;;;;11.95;7.30;;;;;;;11.16;79.67;93165.84;5069095;28;20049;-85
2022/02/16 10:17:35;;;;;;;12.00;6.97;;;;;;;11.29;79.87;93170.06;5069209;28;20441;-84
2022/02/16 10:20:04;;;;;;;11.35;7.18;;;;;;;11.00;79.29;93138.94;5069213;28;20044;-84
2022/02/16 10:22:41;;;;;;;10.30;5.80;;;;;;;10.98;78.96;93122.97;5069107;28;20048;-84
2022/02/16 10:25:15;;;;;;;9.77;5.90;;;;;;;10.88;79.54;93108.03;5068606;28;20106;-84
2022/02/16 10:28:02;;;;;;;14.65;6.72;;;;;;;11.16;79.56;93142.72;5069107;28;20048;-85
2022/02/16 10:30:29;;;;;;;11.95;5.85;;;;;;;11.19;80.20;93152.59;5066768;28;20060;-85
2022/02/16 10:33:16;;;;;;;14.32;6.20;;;;;;;11.07;80.35;93151.75;5066874;28;20318;-85
2022/02/16 10:35:44;;;;;;;13.25;6.13;;;;;;;10.68;80.47;93075.63;5066346;28;20094;-86
2022/02/16 10:38:12;;;;;;;9.43;5.97;;;;;;;10.64;80.41;93068.56;5067732;28;20040;-84
2022/02/16 10:40:39;;;;;;;9.73;5.57;;;;;;;11.06;80.56;93121.91;5068281;28;20524;-85
2022/02/16 10:43:06;;;;;;;10.05;5.78;;;;;;;10.80;79.89;93074.91;5068807;28;20045;-85
2022/02/16 10:45:34;;;;;;;13.27;6.45;;;;;;;11.21;79.89;93127.44;5068866;28;20098;-85
2022/02/16 10:48:06;;;;;;;12.27;5.75;;;;;;;10.65;80.32;93013.63;5068605;28;20048;-85
2022/02/16 10:50:34;;;;;;;12.23;5.10;;;;;;;11.50;79.17;93111.50;5068669;28;20044;-85
2022/02/16 10:53:04;;;;;;;12.38;5.30;;;;;;;11.60;78.46;93104.03;5068546;28;20040;-85
2022/02/16 10:55:44;;;;;;;14.13;5.80;;;;;;;11.23;77.61;93025.19;5067946;28;20056;-85
2022/02/16 10:58:16;;;;;;;10.60;5.15;;;;;;;11.82;78.01;93075.25;5071047;28;20056;-85
2022/02/16 11:00:44;;;;;;;9.27;4.60;;;;;;;12.13;76.07;93081.13;5072184;28;20418;-85
2022/02/16 11:03:25;;;;;;;15.13;4.97;;;;;;;12.19;75.59;93081.25;5072443;28;20140;-85
2022/02/16 11:05:54;;;;;;;9.50;4.55;;;;;;;12.42;74.27;93083.84;5071977;28;20040;-85
2022/02/16 11:08:24;;;;;;;7.70;3.75;;;;;;;12.53;73.91;93073.75;5072514;28;20040;-84
2022/02/16 11:10:51;;;;;;;17.17;10.73;;;;;;;12.21;73.75;93009.72;5071994;28;20041;-84
2022/02/16 11:13:24;;;;;;;18.25;9.48;;;;;;;12.38;72.83;93020.91;5072168;28;20148;-85
2022/02/16 11:15:52;;;;;;;10.50;5.97;;;;;;;12.83;71.92;93071.03;5071855;28;20044;-84
2022/02/16 11:18:22;;;;;;;31.52;20.95;;;;;;;13.00;71.30;93072.16;5072582;28;20041;-85
2022/02/16 11:21:09;;;;;;;15.05;8.40;;;;;;;13.07;71.10;93070.22;5072192;28;20520;-85
2022/02/16 11:23:38;;;;;;;8.25;4.80;;;;;;;12.66;71.13;93011.69;5072137;28;20045;-84
2022/02/16 11:26:30;;;;;;;10.77;5.80;;;;;;;12.64;69.63;93010.34;5072299;28;20048;-85